Time;durP1;ratioP1;P1;durP2;ratioP2;P2;SDS_P1;SDS_P2;PMS_P1;PMS_P2;Temp;Humidity;BMP_temperature;BMP_pressure;BME280_temperature;BME280_humidity;BME280_pressure;Samples;Min_cycle;Max_cycle;Signal;HPM_P1;HPM_P2
2022/04/10 00:00:29;;;;;;;;;4.00;4.00;;;;;21.23;40.29;99985.73;110231;1265;19520;-54
2022/04/10 00:03:04;;;;;;;;;4.00;4.00;;;;;21.23;40.26;99986.23;110252;1264;18648;-54
2022/04/10 00:05:32;;;;;;;;;5.00;5.00;;;;;21.24;40.32;99985.09;110293;1264;21692;-55
2022/04/10 00:07:59;;;;;;;;;5.00;5.00;;;;;21.25;40.33;99987.50;110317;1264;19768;-57
2022/04/10 00:10:26;;;;;;;;;4.00;4.00;;;;;21.23;40.32;99979.94;110231;1264;18499;-53
2022/04/10 00:12:53;;;;;;;;;4.33;4.00;;;;;21.23;40.31;99986.17;110293;1264;22844;-55
2022/04/10 00:15:20;;;;;;;;;4.00;4.00;;;;;21.22;40.30;99987.13;110270;1264;19488;-53
2022/04/10 00:17:48;;;;;;;;;5.00;5.00;;;;;21.23;40.21;99983.40;110262;1264;22877;-53
2022/04/10 00:20:15;;;;;;;;;5.00;5.00;;;;;21.23;40.16;99985.21;110263;1265;18779;-54
2022/04/10 00:22:42;;;;;;;;;5.33;4.00;;;;;21.22;40.15;99988.35;110263;1264;19519;-55
2022/04/10 00:25:09;;;;;;;;;4.67;4.67;;;;;21.22;40.07;99995.55;110250;1265;18442;-55
2022/04/10 00:27:37;;;;;;;;;4.33;4.00;;;;;21.22;40.23;99995.27;110225;1265;22809;-57
2022/04/10 00:30:04;;;;;;;;;5.33;5.00;;;;;21.21;40.30;99997.14;110187;1265;20675;-56
2022/04/10 00:32:31;;;;;;;;;2.00;2.00;;;;;21.21;40.39;99999.11;110258;1264;18432;-54
2022/04/10 00:34:58;;;;;;;;;5.00;4.33;;;;;21.20;40.17;99999.23;110135;1264;19171;-54
2022/04/10 00:37:26;;;;;;;;;4.00;4.00;;;;;21.21;40.22;100003.63;110203;1264;19397;-55
2022/04/10 00:39:53;;;;;;;;;5.00;5.00;;;;;21.21;40.08;100002.04;110169;1264;18471;-55
2022/04/10 00:42:20;;;;;;;;;4.33;4.33;;;;;21.20;40.33;100003.17;110239;1264;19578;-56
2022/04/10 00:44:47;;;;;;;;;6.00;4.00;;;;;21.21;40.31;100001.46;110212;1265;20001;-51
2022/04/10 00:47:15;;;;;;;;;4.50;4.50;;;;;21.19;40.24;99998.22;110254;1265;19019;-55
2022/04/10 00:49:42;;;;;;;;;4.00;4.00;;;;;21.20;40.35;99995.21;110258;1264;20257;-51
2022/04/10 00:52:09;;;;;;;;;6.00;5.00;;;;;21.21;40.39;99996.93;110230;1264;19498;-54
2022/04/10 00:54:36;;;;;;;;;5.67;5.67;;;;;21.19;40.53;99997.14;110269;1264;22110;-53
2022/04/10 00:57:03;;;;;;;;;4.33;4.33;;;;;21.20;40.26;99998.43;110228;1265;18781;-61
2022/04/10 00:59:31;;;;;;;;;5.00;5.00;;;;;21.22;40.45;100000.09;110274;1264;19582;-56
2022/04/10 01:01:58;;;;;;;;;4.00;4.00;;;;;21.21;40.15;100001.92;110261;1265;18534;-55
2022/04/10 01:04:26;;;;;;;;;4.00;4.00;;;;;21.23;40.39;100009.77;110180;1265;18629;-57
2022/04/10 01:06:54;;;;;;;;;4.67;4.67;;;;;21.23;40.17;100008.14;110094;1264;19623;-55
2022/04/10 01:09:21;;;;;;;;;4.00;4.00;;;;;21.22;40.17;100009.27;110190;1265;18599;-53
2022/04/10 01:11:49;;;;;;;;;5.00;5.00;;;;;21.23;40.20;100008.14;110292;1264;18894;-57
2022/04/10 01:14:16;;;;;;;;;4.00;4.00;;;;;21.23;40.25;100009.45;110288;1265;22912;-54
2022/04/10 01:16:44;;;;;;;;;4.50;4.00;;;;;21.21;40.25;100010.64;110330;1265;18484;-60
2022/04/10 01:19:11;;;;;;;;;5.00;4.00;;;;;21.23;40.31;100015.95;110267;1265;33714;-57
2022/04/10 01:21:38;;;;;;;;;5.33;5.33;;;;;21.23;40.24;100013.34;110262;1264;19594;-56
2022/04/10 01:24:06;;;;;;;;;4.33;4.33;;;;;21.22;40.16;100014.79;110277;1264;20927;-57
2022/04/10 01:26:33;;;;;;;;;4.00;4.00;;;;;21.22;40.17;100014.63;110275;1264;18865;-55
2022/04/10 01:29:00;;;;;;;;;4.50;4.50;;;;;21.22;40.29;100012.98;110320;1264;19561;-54
2022/04/10 01:31:27;;;;;;;;;4.33;4.00;;;;;21.20;40.36;100012.98;110304;1264;18605;-57
2022/04/10 01:33:54;;;;;;;;;5.00;5.00;;;;;21.20;40.28;100012.81;110291;1264;23158;-56
2022/04/10 01:36:22;;;;;;;;;5.00;5.00;;;;;21.19;40.15;100017.47;110287;1264;19706;-56
2022/04/10 01:38:49;;;;;;;;;2.00;2.00;;;;;21.19;40.15;100022.62;110287;1264;18647;-58
2022/04/10 01:41:16;;;;;;;;;4.67;4.67;;;;;21.18;40.11;100020.69;110281;1264;21749;-55
2022/04/10 01:43:43;;;;;;;;;5.00;5.00;;;;;21.19;40.06;100020.61;110331;1264;21113;-54
2022/04/10 01:46:11;;;;;;;;;2.00;2.00;;;;;21.18;40.10;100021.48;110259;1264;21204;-52
2022/04/10 01:48:38;;;;;;;;;4.50;4.50;;;;;21.18;40.15;100026.52;110281;1264;18792;-57
2022/04/10 01:51:05;;;;;;;;;4.00;4.00;;;;;21.19;40.08;100021.53;110307;1265;19505;-55
2022/04/10 01:53:32;;;;;;;;;4.33;4.33;;;;;21.19;40.19;100028.23;110276;1265;18770;-55
2022/04/10 01:56:00;;;;;;;;;4.67;4.67;;;;;21.21;40.22;100030.73;110318;1265;21470;-55
2022/04/10 01:58:27;;;;;;;;;4.00;4.00;;;;;21.20;40.32;100027.78;110290;1265;19746;-55
2022/04/10 02:00:54;;;;;;;;;2.00;2.00;;;;;21.20;40.04;100028.38;110281;1264;18503;-56
2022/04/10 02:03:21;;;;;;;;;4.00;3.33;;;;;21.18;40.12;100030.50;110254;1264;18828;-55
2022/04/10 02:05:49;;;;;;;;;5.00;4.00;;;;;21.19;40.04;100031.73;110285;1265;19528;-58
2022/04/10 02:08:16;;;;;;;;;4.00;2.00;;;;;21.19;40.18;100031.85;110299;1265;21772;-55
2022/04/10 02:10:43;;;;;;;;;2.00;2.00;;;;;21.18;40.18;100034.02;110326;1264;18686;-56
2022/04/10 02:13:10;;;;;;;;;2.00;2.00;;;;;21.19;40.05;100033.40;110304;1264;20143;-54
2022/04/10 02:15:37;;;;;;;;;5.50;4.00;;;;;21.17;40.28;100036.63;110251;1264;18889;-56
2022/04/10 02:18:05;;;;;;;;;2.00;2.00;;;;;21.16;40.09;100036.17;110293;1264;18643;-57
2022/04/10 02:20:32;;;;;;;;;4.00;4.00;;;;;21.17;40.34;100032.54;110297;1264;19477;-57
2022/04/10 02:22:59;;;;;;;;;2.00;2.00;;;;;21.15;40.07;100033.85;110330;1264;18475;-53
2022/04/10 02:25:26;;;;;;;;;2.00;2.00;;;;;21.15;40.28;100037.67;110275;1265;20825;-54
2022/04/10 02:27:53;;;;;;;;;4.33;4.00;;;;;21.17;40.36;100037.06;110270;1264;19483;-54
2022/04/10 02:30:21;;;;;;;;;4.00;4.00;;;;;21.16;40.10;100035.91;110208;1264;20287;-55
2022/04/10 02:32:48;;;;;;;;;3.33;3.33;;;;;21.17;40.13;100035.05;110172;1264;18880;-55
2022/04/10 02:35:15;;;;;;;;;4.00;4.00;;;;;21.17;40.26;100035.98;110164;1264;19614;-52
2022/04/10 02:37:45;;;;;;;;;4.33;2.67;;;;;21.16;40.22;100034.00;110329;1264;20007;-53
2022/04/10 02:40:14;;;;;;;;;4.00;4.00;;;;;21.17;40.19;100033.78;110276;1264;18816;-55
2022/04/10 02:42:41;;;;;;;;;2.00;2.00;;;;;21.18;40.07;100032.59;110300;1264;19894;-55
2022/04/10 02:45:08;;;;;;;;;4.00;4.00;;;;;21.16;40.29;100026.40;110311;1264;18459;-57
2022/04/10 02:47:35;;;;;;;;;2.00;2.00;;;;;21.17;40.25;100024.73;110297;1265;18798;-57
2022/04/10 02:50:03;;;;;;;;;2.00;2.00;;;;;21.17;40.12;100027.41;110349;1264;19474;-56
2022/04/10 02:52:30;;;;;;;;;4.50;4.00;;;;;21.17;40.16;100031.40;110292;1264;20158;-55
2022/04/10 02:54:57;;;;;;;;;2.67;2.67;;;;;21.17;40.11;100026.91;110271;1264;18740;-54
2022/04/10 02:57:24;;;;;;;;;4.00;4.00;;;;;21.16;40.17;100024.61;110284;1264;19688;-56
2022/04/10 02:59:51;;;;;;;;;3.33;2.00;;;;;21.16;40.06;100027.20;110289;1264;18433;-56
2022/04/10 03:02:19;;;;;;;;;2.00;2.00;;;;;21.16;40.20;100028.61;110233;1264;19997;-57
2022/04/10 03:04:46;;;;;;;;;4.00;4.00;;;;;21.16;40.04;100028.76;110323;1264;19341;-55
2022/04/10 03:07:13;;;;;;;;;2.00;2.00;;;;;21.16;39.92;100032.20;110230;1264;18482;-53
2022/04/10 03:09:40;;;;;;;;;4.00;4.00;;;;;21.16;40.10;100035.13;110272;1264;18790;-55
2022/04/10 03:12:08;;;;;;;;;3.33;3.33;;;;;21.15;40.27;100034.02;110283;1264;20784;-56
2022/04/10 03:14:35;;;;;;;;;4.00;4.00;;;;;21.16;40.20;100037.55;110316;1264;18427;-57
2022/04/10 03:17:03;;;;;;;;;4.00;4.00;;;;;21.14;40.10;100037.20;110325;1264;22307;-54
2022/04/10 03:19:30;;;;;;;;;2.00;2.00;;;;;21.14;40.11;100031.84;110255;1264;19512;-55
2022/04/10 03:21:57;;;;;;;;;2.00;2.00;;;;;21.14;40.41;100036.83;110267;1264;18503;-57
2022/04/10 03:24:24;;;;;;;;;3.33;2.00;;;;;21.15;40.04;100038.35;110246;1264;18737;-54
2022/04/10 03:26:51;;;;;;;;;4.33;2.00;;;;;21.16;40.07;100044.47;110302;1264;22410;-53
2022/04/10 03:29:19;;;;;;;;;4.00;4.00;;;;;21.15;40.35;100044.34;110310;1265;18761;-58
2022/04/10 03:31:46;;;;;;;;;2.00;2.00;;;;;21.16;40.06;100046.27;110201;1264;18826;-55
2022/04/10 03:34:13;;;;;;;;;2.67;2.00;;;;;21.15;40.30;100044.55;110166;1264;19640;-57
2022/04/10 03:36:41;;;;;;;;;4.00;4.00;;;;;21.14;40.12;100046.13;110256;1264;20275;-55
2022/04/10 03:39:08;;;;;;;;;2.00;2.00;;;;;21.14;40.20;100050.12;110285;1265;18893;-57
2022/04/10 03:41:35;;;;;;;;;4.00;4.00;;;;;21.14;40.29;100053.69;110266;1264;19575;-55
2022/04/10 03:44:03;;;;;;;;;4.00;4.00;;;;;21.14;40.07;100054.44;110335;1264;18348;-53
2022/04/10 03:46:30;;;;;;;;;4.00;4.00;;;;;21.15;40.20;100061.86;110257;1265;18756;-57
2022/04/10 03:48:57;;;;;;;;;5.00;4.00;;;;;21.16;40.21;100069.83;110242;1265;19483;-51
2022/04/10 03:51:24;;;;;;;;;4.00;2.00;;;;;21.16;40.11;100073.32;110276;1264;22731;-55
2022/04/10 03:53:52;;;;;;;;;4.00;4.00;;;;;21.16;40.29;100076.84;110280;1264;18833;-56
2022/04/10 03:56:19;;;;;;;;;2.00;2.00;;;;;21.14;40.35;100074.02;110295;1264;22259;-57
2022/04/10 03:58:46;;;;;;;;;2.00;2.00;;;;;21.13;40.03;100080.38;110359;1264;22624;-56
2022/04/10 04:01:13;;;;;;;;;2.00;2.00;;;;;21.13;40.18;100082.39;110308;1264;18881;-54
2022/04/10 04:03:40;;;;;;;;;3.33;3.33;;;;;21.13;40.15;100081.55;110281;1264;20022;-56
2022/04/10 04:06:08;;;;;;;;;2.67;2.67;;;;;21.13;40.35;100087.03;110275;1264;18453;-56
2022/04/10 04:08:35;;;;;;;;;2.00;2.00;;;;;21.13;40.12;100086.24;110312;1264;19035;-54
2022/04/10 04:11:02;;;;;;;;;4.00;4.00;;;;;21.12;39.91;100098.14;110312;1264;19748;-53
2022/04/10 04:13:30;;;;;;;;;4.00;4.00;;;;;21.11;39.94;100088.66;110275;1264;22389;-56
2022/04/10 04:15:57;;;;;;;;;4.00;2.00;;;;;21.11;39.92;100095.54;110282;1264;18732;-55
2022/04/10 04:18:24;;;;;;;;;2.00;2.00;;;;;21.12;39.89;100101.79;110277;1264;22711;-52
2022/04/10 04:20:51;;;;;;;;;4.00;2.00;;;;;21.11;39.93;100110.60;110256;1264;18963;-54
2022/04/10 04:23:19;;;;;;;;;2.67;2.67;;;;;21.12;40.04;100114.70;110312;1265;18721;-55
2022/04/10 04:25:47;;;;;;;;;4.00;4.00;;;;;21.13;39.87;100116.73;110310;1264;19672;-54
2022/04/10 04:28:14;;;;;;;;;2.00;2.00;;;;;21.12;40.23;100119.58;110248;1264;18610;-52
2022/04/10 04:30:41;;;;;;;;;2.00;2.00;;;;;21.12;40.08;100123.46;110282;1265;18898;-55
2022/04/10 04:33:08;;;;;;;;;4.00;4.00;;;;;21.11;40.05;100123.71;110284;1265;19694;-54
2022/04/10 04:35:35;;;;;;;;;4.00;2.00;;;;;21.11;40.11;100127.39;110266;1264;18576;-55
2022/04/10 04:38:03;;;;;;;;;4.33;4.00;;;;;21.10;40.14;100133.84;110335;1264;20017;-55
2022/04/10 04:40:30;;;;;;;;;2.00;2.00;;;;;21.12;40.06;100139.30;110287;1264;19671;-55
2022/04/10 04:42:57;;;;;;;;;2.67;2.67;;;;;21.11;40.22;100141.77;110273;1264;19934;-55
2022/04/10 04:45:24;;;;;;;;;2.00;2.00;;;;;21.10;40.10;100148.88;110290;1265;18758;-53
2022/04/10 04:47:51;;;;;;;;;3.00;3.00;;;;;21.10;39.95;100149.77;110277;1264;22094;-53
2022/04/10 04:50:19;;;;;;;;;4.33;4.00;;;;;21.10;39.92;100153.25;110280;1264;18660;-55
2022/04/10 04:52:46;;;;;;;;;4.50;4.00;;;;;21.12;40.03;100163.72;110302;1264;19023;-55
2022/04/10 04:55:13;;;;;;;;;2.67;2.67;;;;;21.12;40.03;100164.16;110280;1264;19618;-56
2022/04/10 04:57:40;;;;;;;;;4.33;2.00;;;;;21.12;40.23;100170.17;110283;1264;22829;-54
2022/04/10 05:00:08;;;;;;;;;3.33;2.67;;;;;21.12;40.09;100173.06;110269;1264;18844;-56
2022/04/10 05:02:35;;;;;;;;;4.33;3.33;;;;;21.13;40.02;100178.39;110292;1264;19640;-55
2022/04/10 05:05:02;;;;;;;;;4.00;4.00;;;;;21.13;39.81;100183.09;110308;1264;18625;-56
2022/04/10 05:07:29;;;;;;;;;1.00;1.00;;;;;21.12;40.11;100182.90;110260;1264;18892;-54
2022/04/10 05:09:57;;;;;;;;;4.00;3.33;;;;;21.11;40.20;100184.79;110288;1264;19517;-55
2022/04/10 05:12:24;;;;;;;;;2.00;2.00;;;;;21.12;40.02;100189.16;110252;1264;22261;-56
2022/04/10 05:14:52;;;;;;;;;2.00;2.00;;;;;21.13;39.99;100186.73;110253;1264;18786;-54
2022/04/10 05:17:19;;;;;;;;;4.67;4.00;;;;;21.15;40.10;100193.70;110305;1264;19733;-59
2022/04/10 05:19:46;;;;;;;;;4.00;2.00;;;;;21.16;40.07;100192.36;110343;1263;18559;-54
2022/04/10 05:22:13;;;;;;;;;4.00;2.67;;;;;21.19;40.03;100197.58;110286;1264;19090;-56
2022/04/10 05:24:40;;;;;;;;;4.00;4.00;;;;;21.21;39.94;100195.88;110319;1264;19645;-58
2022/04/10 05:27:10;;;;;;;;;2.00;2.00;;;;;21.21;39.84;100192.23;110256;1264;18576;-54
2022/04/10 05:29:37;;;;;;;;;2.00;2.00;;;;;21.23;39.76;100195.78;110256;1264;18773;-55
2022/04/10 05:32:04;;;;;;;;;4.00;4.00;;;;;21.26;39.84;100199.99;110282;1264;20938;-56
2022/04/10 05:34:31;;;;;;;;;4.00;4.00;;;;;21.27;39.75;100204.33;110291;1264;19581;-55
2022/04/10 05:36:58;;;;;;;;;4.00;4.00;;;;;21.29;39.95;100205.19;110271;1264;18766;-58
2022/04/10 05:39:26;;;;;;;;;2.00;2.00;;;;;21.30;40.03;100209.06;110272;1264;23084;-55
2022/04/10 05:41:53;;;;;;;;;2.00;2.00;;;;;21.30;39.90;100209.64;110305;1264;18539;-54
2022/04/10 05:44:20;;;;;;;;;2.00;2.00;;;;;21.32;39.86;100209.95;110278;1264;18682;-55
2022/04/10 05:46:47;;;;;;;;;3.33;3.33;;;;;21.35;39.86;100210.98;110297;1264;19595;-56
2022/04/10 05:49:16;;;;;;;;;3.00;2.00;;;;;21.38;39.76;100211.94;110264;1264;18728;-54
2022/04/10 05:51:43;;;;;;;;;4.00;4.00;;;;;21.37;39.72;100216.64;110214;1264;20249;-52
2022/04/10 05:54:13;;;;;;;;;2.00;2.00;;;;;21.39;39.66;100216.32;110247;1264;19846;-54
2022/04/10 05:56:41;;;;;;;;;4.67;4.00;;;;;21.42;39.62;100217.78;110235;1264;19849;-55
2022/04/10 05:59:08;;;;;;;;;4.00;4.00;;;;;21.44;39.51;100218.09;110261;1264;18594;-54
2022/04/10 06:01:35;;;;;;;;;2.00;2.00;;;;;21.50;39.64;100220.92;110088;1264;26523;-53
2022/04/10 06:04:02;;;;;;;;;2.00;2.00;;;;;21.54;39.24;100217.08;110201;1264;19001;-53
2022/04/10 06:06:29;;;;;;;;;2.00;2.00;;;;;21.57;39.32;100221.45;110260;1264;22243;-51
2022/04/10 06:08:57;;;;;;;;;4.67;4.67;;;;;21.61;39.32;100225.86;110297;1264;19501;-57
2022/04/10 06:11:24;;;;;;;;;2.00;2.00;;;;;21.64;39.36;100222.61;110277;1264;18482;-55
2022/04/10 06:13:51;;;;;;;;;2.00;2.00;;;;;21.69;39.09;100226.17;110271;1264;18722;-53
2022/04/10 06:16:18;;;;;;;;;4.00;4.00;;;;;21.66;39.04;100225.27;110121;1264;175204;-56
2022/04/10 06:18:45;;;;;;;;;4.00;4.00;;;;;21.66;38.99;100227.09;110191;1264;18481;-54
2022/04/10 06:21:13;;;;;;;;;5.67;5.00;;;;;21.70;39.28;100230.70;110193;1264;21854;-54
2022/04/10 06:23:40;;;;;;;;;4.00;2.00;;;;;21.78;39.54;100231.21;110243;1265;19585;-55
2022/04/10 06:26:07;;;;;;;;;2.00;2.00;;;;;21.81;39.76;100242.19;110279;1264;19801;-53
2022/04/10 06:28:34;;;;;;;;;2.67;2.67;;;;;21.80;39.80;100244.16;110215;1265;21568;-54
2022/04/10 06:31:02;;;;;;;;;4.33;4.33;;;;;21.78;39.91;100242.77;110206;1264;19619;-56
2022/04/10 06:33:29;;;;;;;;;4.00;4.00;;;;;21.74;39.64;100249.52;110212;1265;18466;-56
2022/04/10 06:35:56;;;;;;;;;3.33;3.33;;;;;21.67;39.13;100246.05;110211;1264;18893;-56
2022/04/10 06:38:24;;;;;;;;;5.00;5.00;;;;;21.64;39.07;100248.84;110291;1264;19588;-56
2022/04/10 06:40:51;;;;;;;;;5.00;5.00;;;;;21.61;39.26;100243.90;110250;1264;18561;-52
2022/04/10 06:43:19;;;;;;;;;6.00;5.00;;;;;21.58;38.50;100249.52;110214;1264;20115;-53
2022/04/10 06:45:47;;;;;;;;;5.33;5.33;;;;;21.59;38.47;100257.42;110173;1264;19543;-55
2022/04/10 06:48:14;;;;;;;;;5.50;5.50;;;;;21.56;37.69;100257.15;110180;1264;22221;-56
2022/04/10 06:50:41;;;;;;;;;5.50;5.50;;;;;21.55;37.25;100260.95;110268;1265;22925;-57
2022/04/10 06:53:09;;;;;;;;;6.00;6.00;;;;;21.53;36.57;100263.00;110288;1264;19615;-56
2022/04/10 06:55:37;;;;;;;;;7.33;7.33;;;;;21.54;36.47;100266.06;110261;1264;19310;-56
2022/04/10 06:58:04;;;;;;;;;9.00;6.00;;;;;21.53;35.78;100267.81;110234;1265;18914;-54
2022/04/10 07:00:32;;;;;;;;;6.67;6.67;;;;;21.46;35.46;100265.89;110274;1264;19480;-54
2022/04/10 07:03:01;;;;;;;;;6.00;6.00;;;;;21.43;35.33;100274.00;110242;1265;22413;-54
2022/04/10 07:05:28;;;;;;;;;8.00;8.00;;;;;21.45;35.81;100273.52;110281;1264;18763;-57
2022/04/10 07:07:55;;;;;;;;;5.00;5.00;;;;;21.48;35.58;100270.58;110292;1265;19591;-57
2022/04/10 07:10:23;;;;;;;;;6.00;6.00;;;;;21.47;35.14;100275.50;110253;1264;18623;-59
2022/04/10 07:12:50;;;;;;;;;6.00;5.67;;;;;21.43;35.31;100271.10;110243;1264;18641;-57
2022/04/10 07:15:17;;;;;;;;;8.00;6.00;;;;;21.48;35.49;100276.69;110298;1264;19567;-58
2022/04/10 07:17:44;;;;;;;;;9.00;8.00;;;;;21.52;34.96;100277.51;110208;1264;19156;-54
2022/04/10 07:20:11;;;;;;;;;6.00;6.00;;;;;21.58;34.87;100284.05;110318;1264;18947;-56
2022/04/10 07:25:32;;;;;;;;;5.00;5.00;;;;;21.57;34.95;100281.33;109590;1268;18570;-58
2022/04/10 07:27:59;;;;;;;;;6.00;6.00;;;;;21.58;35.38;100286.04;109586;1268;18802;-54
2022/04/10 07:30:26;;;;;;;;;5.00;5.00;;;;;21.58;35.23;100284.80;109554;1270;19626;-54
2022/04/10 07:32:54;;;;;;;;;8.00;7.00;;;;;21.57;35.09;100290.41;109573;1269;20319;-57
2022/04/10 07:35:21;;;;;;;;;7.33;6.00;;;;;21.54;34.61;100293.54;110001;1268;19029;-58
2022/04/10 07:37:48;;;;;;;;;9.50;9.50;;;;;21.52;34.43;100294.94;109632;1268;19658;-53
2022/04/10 07:40:15;;;;;;;;;8.50;6.00;;;;;21.51;34.26;100305.00;109634;1267;22418;-55
2022/04/10 07:42:43;;;;;;;;;8.67;8.00;;;;;21.35;32.35;100302.29;109657;1267;21740;-57
2022/04/10 07:45:10;;;;;;;;;6.00;6.00;;;;;21.19;32.21;100299.70;109677;1268;19459;-57
2022/04/10 07:47:38;;;;;;;;;6.00;6.00;;;;;21.13;32.69;100302.68;109947;1267;18593;-56
2022/04/10 07:50:05;;;;;;;;;5.67;5.67;;;;;21.27;33.66;100300.49;109688;1268;18866;-53
2022/04/10 07:52:32;;;;;;;;;6.67;6.00;;;;;21.47;33.73;100305.87;109559;1269;19547;-55
2022/04/10 07:54:59;;;;;;;;;7.33;6.67;;;;;21.65;34.00;100310.06;109522;1270;18948;-56
2022/04/10 07:57:27;;;;;;;;;8.00;6.00;;;;;21.78;34.33;100312.84;109426;1270;18772;-58
2022/04/10 07:59:54;;;;;;;;;6.00;6.00;;;;;21.85;34.59;100313.55;109291;1270;19644;-55
2022/04/10 08:02:21;;;;;;;;;9.00;8.00;;;;;21.88;34.95;100313.92;109811;1265;23545;-52
2022/04/10 08:04:48;;;;;;;;;8.33;6.67;;;;;21.91;35.32;100319.39;110152;1264;18833;-56
2022/04/10 08:07:16;;;;;;;;;50.33;40.33;;;;;21.95;35.61;100323.52;110147;1264;19743;-55
2022/04/10 08:09:44;;;;;;;;;84.67;61.33;;;;;21.97;36.10;100325.13;110143;1265;18975;-54
2022/04/10 08:12:11;;;;;;;;;105.67;78.00;;;;;21.94;36.78;100326.48;110169;1264;19115;-53
2022/04/10 08:14:38;;;;;;;;;132.33;99.67;;;;;21.91;37.29;100333.51;110227;1264;19584;-56
2022/04/10 08:17:09;;;;;;;;;122.33;92.33;;;;;21.89;37.55;100335.21;110205;1264;22345;-55
2022/04/10 08:19:36;;;;;;;;;115.00;88.33;;;;;21.90;38.06;100338.75;110182;1264;18942;-54
2022/04/10 08:22:03;;;;;;;;;99.33;70.67;;;;;21.90;38.15;100340.67;110184;1264;19786;-57
2022/04/10 08:24:30;;;;;;;;;88.00;64.00;;;;;21.90;38.61;100345.54;110102;1264;19176;-55
2022/04/10 08:26:59;;;;;;;;;89.33;64.00;;;;;21.88;38.80;100354.33;110150;1264;20837;-53
2022/04/10 08:29:26;;;;;;;;;83.00;60.00;;;;;21.81;38.96;100364.04;110104;1264;19481;-54
2022/04/10 08:31:53;;;;;;;;;77.33;57.67;;;;;21.74;39.02;100363.16;110304;1264;18835;-53
2022/04/10 08:34:20;;;;;;;;;77.00;58.00;;;;;21.72;39.31;100363.98;110196;1264;19146;-56
2022/04/10 08:36:48;;;;;;;;;87.00;61.33;;;;;21.69;39.44;100364.77;110216;1264;19470;-54
2022/04/10 08:39:15;;;;;;;;;75.50;57.00;;;;;21.65;39.45;100364.90;110246;1264;18798;-54
2022/04/10 08:41:42;;;;;;;;;77.00;54.50;;;;;21.61;39.43;100366.79;110157;1264;18902;-53
2022/04/10 08:44:09;;;;;;;;;66.33;52.33;;;;;21.59;39.41;100369.92;110166;1264;19784;-53
2022/04/10 08:46:37;;;;;;;;;70.67;52.00;;;;;21.60;39.86;100371.86;110133;1264;22337;-57
2022/04/10 08:49:04;;;;;;;;;69.33;52.00;;;;;21.62;39.80;100377.03;110250;1262;18797;-55
2022/04/10 08:51:31;;;;;;;;;65.33;49.33;;;;;21.65;40.01;100370.11;110207;1264;19438;-55
2022/04/10 08:54:00;;;;;;;;;62.67;46.33;;;;;21.67;40.19;100374.07;110086;1264;18756;-54
2022/04/10 08:56:27;;;;;;;;;63.67;48.33;;;;;21.68;40.26;100377.40;110065;1265;19124;-56
2022/04/10 08:58:54;;;;;;;;;65.33;46.67;;;;;21.68;40.44;100380.08;110166;1264;19799;-57
2022/04/10 09:01:22;;;;;;;;;55.33;44.67;;;;;21.62;40.27;100381.39;110162;1264;22595;-53
2022/04/10 09:03:49;;;;;;;;;55.00;42.00;;;;;21.59;40.45;100380.45;110211;1264;18879;-56
2022/04/10 09:06:16;;;;;;;;;60.33;47.67;;;;;21.58;40.39;100379.34;110149;1264;19790;-51
2022/04/10 09:08:44;;;;;;;;;63.50;44.00;;;;;21.55;39.97;100386.05;110243;1264;23489;-52
2022/04/10 09:11:12;;;;;;;;;54.00;44.00;;;;;21.52;40.03;100384.80;110272;1262;18983;-54
2022/04/10 09:13:39;;;;;;;;;55.50;44.50;;;;;21.50;40.19;100392.46;110282;1264;22793;-56
2022/04/10 09:16:06;;;;;;;;;53.33;44.67;;;;;21.47;40.24;100387.23;110135;1264;18739;-56
2022/04/10 09:18:33;;;;;;;;;54.50;40.50;;;;;21.46;40.19;100389.92;110282;1264;18990;-55
2022/04/10 09:21:00;;;;;;;;;51.00;42.00;;;;;21.45;40.07;100393.44;110298;1264;19761;-53
2022/04/10 09:23:28;;;;;;;;;51.00;43.00;;;;;21.45;40.20;100397.38;110274;1264;19263;-53
2022/04/10 09:25:55;;;;;;;;;49.00;40.00;;;;;21.45;40.28;100400.27;110335;1264;18988;-58
2022/04/10 09:28:22;;;;;;;;;56.50;42.00;;;;;21.44;40.22;100395.86;110258;1264;19467;-54
2022/04/10 09:30:49;;;;;;;;;53.00;43.00;;;;;21.43;40.12;100399.41;110297;1264;20120;-54
2022/04/10 09:33:16;;;;;;;;;49.00;38.67;;;;;21.43;40.26;100399.66;110293;1263;18926;-56
2022/04/10 09:35:44;;;;;;;;;44.33;32.33;;;;;21.41;40.33;100403.58;110250;1265;22048;-57
2022/04/10 09:38:11;;;;;;;;;42.33;36.33;;;;;21.40;40.34;100404.61;110303;1264;18923;-53
2022/04/10 09:40:38;;;;;;;;;45.33;38.00;;;;;21.40;40.38;100411.10;110291;1264;18880;-54
2022/04/10 09:43:05;;;;;;;;;45.50;34.50;;;;;21.39;40.35;100414.04;110286;1264;25015;-59
2022/04/10 09:45:33;;;;;;;;;43.50;33.00;;;;;21.39;40.51;100413.02;110189;1264;18776;-58
2022/04/10 09:48:00;;;;;;;;;34.67;32.00;;;;;21.37;40.25;100409.23;110281;1264;19111;-56
2022/04/10 09:50:27;;;;;;;;;46.50;36.00;;;;;21.37;40.42;100409.02;110262;1264;19617;-57
2022/04/10 09:52:54;;;;;;;;;47.00;40.00;;;;;21.38;40.11;100408.73;110144;1264;19046;-56
2022/04/10 09:55:21;;;;;;;;;49.33;36.33;;;;;21.39;40.10;100409.01;110321;1264;24089;-56
2022/04/10 09:57:49;;;;;;;;;34.33;29.67;;;;;21.40;40.16;100415.84;110263;1264;19457;-56
2022/04/10 10:00:17;;;;;;;;;40.50;29.00;;;;;21.41;40.13;100416.20;110268;1264;18774;-56
2022/04/10 10:02:44;;;;;;;;;38.50;32.50;;;;;21.40;40.17;100416.86;110269;1264;20923;-54
2022/04/10 10:05:12;;;;;;;;;37.00;33.67;;;;;21.41;40.08;100420.33;110302;1264;19638;-55
2022/04/10 10:07:39;;;;;;;;;35.00;31.00;;;;;21.41;40.26;100419.89;110285;1264;19385;-54
2022/04/10 10:10:07;;;;;;;;;37.33;32.67;;;;;21.41;40.05;100422.08;110283;1264;18988;-54
2022/04/10 10:12:34;;;;;;;;;38.33;30.67;;;;;21.41;40.02;100424.58;110296;1264;19475;-56
2022/04/10 10:15:01;;;;;;;;;37.50;29.50;;;;;21.39;40.16;100429.14;110277;1264;20262;-56
2022/04/10 10:17:29;;;;;;;;;37.00;28.00;;;;;21.39;40.24;100435.20;110221;1264;18857;-56
2022/04/10 10:19:56;;;;;;;;;39.33;31.00;;;;;21.35;40.19;100432.70;110344;1264;19639;-57
2022/04/10 10:22:23;;;;;;;;;34.67;30.67;;;;;21.37;40.15;100435.60;110159;1264;20149;-56
2022/04/10 10:24:51;;;;;;;;;34.33;28.00;;;;;21.36;40.24;100434.93;110298;1264;18970;-55
2022/04/10 10:27:18;;;;;;;;;31.67;28.67;;;;;21.37;40.16;100437.08;110287;1264;19470;-54
2022/04/10 10:29:45;;;;;;;;;29.00;26.00;;;;;21.34;40.36;100430.80;110275;1265;23414;-56
2022/04/10 10:32:12;;;;;;;;;32.50;29.00;;;;;21.35;40.10;100436.16;110300;1264;18968;-55
2022/04/10 10:34:42;;;;;;;;;29.00;25.00;;;;;21.37;40.04;100438.45;110300;1264;20994;-56
2022/04/10 10:37:09;;;;;;;;;33.67;28.00;;;;;21.37;39.94;100435.27;110271;1265;18816;-56
2022/04/10 10:39:36;;;;;;;;;28.00;25.00;;;;;21.37;40.12;100442.35;110270;1265;18873;-60
2022/04/10 10:42:03;;;;;;;;;32.00;25.67;;;;;21.38;40.12;100447.15;110238;1265;19810;-53
2022/04/10 10:44:31;;;;;;;;;28.00;22.33;;;;;21.36;39.88;100444.66;110260;1264;18754;-56
2022/04/10 10:47:00;;;;;;;;;27.67;21.00;;;;;21.35;39.99;100444.73;110293;1264;19109;-52
2022/04/10 10:49:28;;;;;;;;;35.00;25.00;;;;;21.37;40.05;100446.48;110290;1264;19492;-57
2022/04/10 10:51:56;;;;;;;;;27.50;25.00;;;;;21.36;39.84;100445.87;110301;1264;18797;-59
2022/04/10 10:54:24;;;;;;;;;24.67;21.67;;;;;21.36;40.03;100450.27;110281;1264;20894;-53
2022/04/10 10:56:51;;;;;;;;;35.00;25.00;;;;;21.37;39.95;100454.31;110121;1264;19532;-56
2022/04/10 10:59:18;;;;;;;;;25.00;22.67;;;;;21.36;39.93;100456.41;110298;1264;18894;-56
2022/04/10 11:01:45;;;;;;;;;22.00;18.67;;;;;21.37;39.94;100452.05;110274;1264;19672;-56
2022/04/10 11:04:13;;;;;;;;;22.67;22.00;;;;;21.37;39.87;100456.84;110276;1264;19674;-56
2022/04/10 11:06:40;;;;;;;;;24.00;20.00;;;;;21.37;39.73;100458.27;110214;1264;20457;-56
2022/04/10 11:09:07;;;;;;;;;26.00;21.00;;;;;21.38;39.94;100461.45;110272;1264;19777;-58
2022/04/10 11:11:34;;;;;;;;;28.50;21.00;;;;;21.38;39.93;100467.42;110288;1265;19477;-56
2022/04/10 11:14:02;;;;;;;;;24.00;20.00;;;;;21.36;40.17;100463.28;110315;1264;18812;-57